PWSweather.com
Personal Weather Stations
Station Observations
948974
Valtournenche, AostaIT 11028

ValtournencheAostaIT 11028

Lat: 45.877222, Lon: 7.625556

Elevation: 5085.3018

Station Type: PCE-FWS 20

http://www.cdso.it

High Low Average
Temperature 62.4°F16.9°C 42.3°F5.7°C 49.7°F9.8°C
Dew Point 46.0°F7.8°C 31.7°F-0.2°C 39.1°F3.9°C
Winds 6.0 mph 9.7 kmh Calm Calm 2.0 mph ESE3.2 kmh ESE
Wind Gusts 8.0 mph12.9 kmh 1.0 mph1.6 kmh 5.0 mph8.0 kmh
Humidity 93% 44% 68%
Pressure 30.09 in1019.0 mb 29.79 in1008.8 mb -
Precipitation 0.00 in0.0 mm - -
Hour Temp Dew Point Humidity Winds Wind Gusts Pressure Precip Precip Rate Daily Precip Total
12:16 AM 45.9°F7.7°C 35.9°F2.2°C 68% 3.0 mph 4.8 kmh 6.0 mph9.7 kmh 30.06 in1017.9 mb 0.00 in0.0 mm 0.00 in0.0 mm 0.00 in0.0 mm
12:37 AM 46.2°F7.9°C 35.1°F1.7°C 65% 4.0 mph 6.4 kmh 8.0 mph12.9 kmh 30.05 in1017.6 mb 0.00 in0.0 mm 0.00 in0.0 mm 0.00 in0.0 mm
12:58 AM 44.4°F6.9°C 36.0°F2.2°C 72% 2.0 mph 3.2 kmh 2.0 mph3.2 kmh 30.08 in1018.6 mb 0.00 in0.0 mm 0.00 in0.0 mm 0.00 in0.0 mm
01:19 AM 44.6°F7.0°C 35.8°F2.1°C 71% 2.0 mph 3.2 kmh 2.0 mph3.2 kmh 30.07 in1018.3 mb 0.00 in0.0 mm 0.00 in0.0 mm 0.00 in0.0 mm
01:40 AM 44.2°F6.8°C 35.8°F2.1°C 72% 4.0 mph 6.4 kmh 5.0 mph8.0 kmh 30.09 in1019.0 mb 0.00 in0.0 mm 0.00 in0.0 mm 0.00 in0.0 mm
02:01 AM 45.0°F7.2°C 35.0°F1.7°C 68% 5.0 mph 8.0 kmh 8.0 mph12.9 kmh 30.07 in1018.3 mb 0.00 in0.0 mm 0.00 in0.0 mm 0.00 in0.0 mm
02:22 AM 45.0°F7.2°C 34.3°F1.3°C 66% 3.0 mph 4.8 kmh 4.0 mph6.4 kmh 30.06 in1017.9 mb 0.00 in0.0 mm 0.00 in0.0 mm 0.00 in0.0 mm
02:43 AM 43.5°F6.4°C 35.1°F1.7°C 72% 3.0 mph 4.8 kmh 4.0 mph6.4 kmh 30.08 in1018.6 mb 0.00 in0.0 mm 0.00 in0.0 mm 0.00 in0.0 mm
03:04 AM 43.2°F6.2°C 34.8°F1.6°C 72% 2.0 mph 3.2 kmh 3.0 mph4.8 kmh 30.08 in1018.6 mb 0.00 in0.0 mm 0.00 in0.0 mm 0.00 in0.0 mm
03:25 AM 43.3°F6.3°C 34.9°F1.6°C 72% 5.0 mph 8.0 kmh 7.0 mph11.3 kmh 30.09 in1019.0 mb 0.00 in0.0 mm 0.00 in0.0 mm 0.00 in0.0 mm
03:46 AM 44.8°F7.1°C 33.4°F0.8°C 64% 3.0 mph 4.8 kmh 4.0 mph6.4 kmh 30.07 in1018.3 mb 0.00 in0.0 mm 0.00 in0.0 mm 0.00 in0.0 mm
04:08 AM 43.7°F6.5°C 33.8°F1.0°C 68% 6.0 mph 9.7 kmh 7.0 mph11.3 kmh 30.06 in1017.9 mb 0.00 in0.0 mm 0.00 in0.0 mm 0.00 in0.0 mm
04:29 AM 44.1°F6.7°C 33.4°F0.8°C 66% 2.0 mph 3.2 kmh 2.0 mph3.2 kmh 30.05 in1017.6 mb 0.00 in0.0 mm 0.00 in0.0 mm 0.00 in0.0 mm
04:50 AM 42.3°F5.7°C 34.6°F1.4°C 74% 4.0 mph 6.4 kmh 6.0 mph9.7 kmh 30.06 in1017.9 mb 0.00 in0.0 mm 0.00 in0.0 mm 0.00 in0.0 mm
05:12 AM 43.2°F6.2°C 33.7°F0.9°C 69% 2.0 mph 3.2 kmh 4.0 mph6.4 kmh 30.05 in1017.6 mb 0.00 in0.0 mm 0.00 in0.0 mm 0.00 in0.0 mm
05:33 AM 46.0°F7.8°C 31.7°F-0.2°C 57% 2.0 mph 3.2 kmh 4.0 mph6.4 kmh 30.02 in1016.6 mb 0.00 in0.0 mm 0.00 in0.0 mm 0.00 in0.0 mm
05:54 AM 43.9°F6.6°C 32.9°F0.5°C 65% 2.0 mph 3.2 kmh 3.0 mph4.8 kmh 30.05 in1017.6 mb 0.00 in0.0 mm 0.00 in0.0 mm 0.00 in0.0 mm
06:15 AM 44.6°F7.0°C 32.0°F0.0°C 61% Calm Calm 1.0 mph1.6 kmh 30.04 in1017.3 mb 0.00 in0.0 mm 0.00 in0.0 mm 0.00 in0.0 mm
06:36 AM 43.3°F6.3°C 32.8°F0.4°C 66% 2.0 mph 3.2 kmh 3.0 mph4.8 kmh 30.06 in1017.9 mb 0.00 in0.0 mm 0.00 in0.0 mm 0.00 in0.0 mm
06:57 AM 43.7°F6.5°C 33.5°F0.8°C 67% 2.0 mph 3.2 kmh 3.0 mph4.8 kmh 30.06 in1017.9 mb 0.00 in0.0 mm 0.00 in0.0 mm 0.00 in0.0 mm
07:21 AM 46.4°F8.0°C 32.7°F0.4°C 59% 4.0 mph N6.4 kmh N 7.0 mph11.3 kmh 30.03 in1016.9 mb 0.00 in0.0 mm 0.00 in0.0 mm 0.00 in0.0 mm
07:42 AM 47.7°F8.7°C 33.6°F0.9°C 58% 2.0 mph 3.2 kmh 5.0 mph8.0 kmh 30.00 in1015.9 mb 0.00 in0.0 mm 0.00 in0.0 mm 0.00 in0.0 mm
08:03 AM 48.4°F9.1°C 34.2°F1.2°C 58% 2.0 mph 3.2 kmh 4.0 mph6.4 kmh 29.99 in1015.6 mb 0.00 in0.0 mm 0.00 in0.0 mm 0.00 in0.0 mm
08:21 AM 49.5°F9.7°C 36.4°F2.4°C 60% Calm Calm 2.0 mph3.2 kmh 29.99 in1015.6 mb 0.00 in0.0 mm 0.00 in0.0 mm 0.00 in0.0 mm
08:42 AM 49.2°F9.6°C 35.8°F2.1°C 60% Calm Calm 2.0 mph3.2 kmh 30.00 in1015.9 mb 0.00 in0.0 mm 0.00 in0.0 mm 0.00 in0.0 mm
09:03 AM 48.4°F9.1°C 36.6°F2.6°C 64% 3.0 mph 4.8 kmh 8.0 mph12.9 kmh 30.02 in1016.6 mb 0.00 in0.0 mm 0.00 in0.0 mm 0.00 in0.0 mm
09:21 AM 49.4°F9.7°C 36.7°F2.6°C 61% 3.0 mph 4.8 kmh 8.0 mph12.9 kmh 30.00 in1015.9 mb 0.00 in0.0 mm 0.00 in0.0 mm 0.00 in0.0 mm
09:42 AM 50.3°F10.2°C 37.5°F3.1°C 61% 2.0 mph 3.2 kmh 3.0 mph4.8 kmh 30.00 in1015.9 mb 0.00 in0.0 mm 0.00 in0.0 mm 0.00 in0.0 mm
10:03 AM 52.2°F11.2°C 36.8°F2.7°C 56% 1.0 mph 1.6 kmh 3.0 mph4.8 kmh 29.97 in1014.9 mb 0.00 in0.0 mm 0.00 in0.0 mm 0.00 in0.0 mm
10:21 AM 53.6°F12.0°C 37.9°F3.3°C 55% 1.0 mph 1.6 kmh 3.0 mph4.8 kmh 29.95 in1014.2 mb 0.00 in0.0 mm 0.00 in0.0 mm 0.00 in0.0 mm
10:42 AM 54.1°F12.3°C 38.4°F3.6°C 55% 2.0 mph 3.2 kmh 4.0 mph6.4 kmh 29.95 in1014.2 mb 0.00 in0.0 mm 0.00 in0.0 mm 0.00 in0.0 mm
11:03 AM 53.5°F11.9°C 39.1°F3.9°C 58% 1.0 mph 1.6 kmh 2.0 mph3.2 kmh 29.95 in1014.2 mb 0.00 in0.0 mm 0.00 in0.0 mm 0.00 in0.0 mm
11:21 AM 53.9°F12.2°C 38.5°F3.6°C 56% 2.0 mph NNW3.2 kmh NNW 4.0 mph6.4 kmh 29.95 in1014.2 mb 0.00 in0.0 mm 0.00 in0.0 mm 0.00 in0.0 mm
11:42 AM 53.3°F11.8°C 36.7°F2.6°C 53% 3.0 mph WNW4.8 kmh WNW 6.0 mph9.7 kmh 29.96 in1014.6 mb 0.00 in0.0 mm 0.00 in0.0 mm 0.00 in0.0 mm
12:03 PM 54.0°F12.2°C 35.6°F2.0°C 50% 2.0 mph WNW3.2 kmh WNW 4.0 mph6.4 kmh 29.94 in1013.9 mb 0.00 in0.0 mm 0.00 in0.0 mm 0.00 in0.0 mm
12:21 PM 54.4°F12.4°C 36.2°F2.3°C 50% 3.0 mph WNW4.8 kmh WNW 6.0 mph9.7 kmh 29.94 in1013.9 mb 0.00 in0.0 mm 0.00 in0.0 mm 0.00 in0.0 mm
12:42 PM 54.3°F12.4°C 38.4°F3.6°C 55% 1.0 mph WNW1.6 kmh WNW 4.0 mph6.4 kmh 29.93 in1013.5 mb 0.00 in0.0 mm 0.00 in0.0 mm 0.00 in0.0 mm
01:03 PM 54.9°F12.7°C 40.0°F4.4°C 57% 2.0 mph NW3.2 kmh NW 5.0 mph8.0 kmh 29.91 in1012.9 mb 0.00 in0.0 mm 0.00 in0.0 mm 0.00 in0.0 mm
01:21 PM 55.5°F13.1°C 40.6°F4.8°C 57% 4.0 mph WNW6.4 kmh WNW 8.0 mph12.9 kmh 29.90 in1012.5 mb 0.00 in0.0 mm 0.00 in0.0 mm 0.00 in0.0 mm
02:03 PM 57.7°F14.3°C 41.2°F5.1°C 54% 4.0 mph WNW6.4 kmh WNW 6.0 mph9.7 kmh 29.88 in1011.9 mb 0.00 in0.0 mm 0.00 in0.0 mm 0.00 in0.0 mm
02:21 PM 58.7°F14.8°C 42.3°F5.7°C 54% 4.0 mph NW6.4 kmh NW 7.0 mph11.3 kmh 29.85 in1010.8 mb 0.00 in0.0 mm 0.00 in0.0 mm 0.00 in0.0 mm
02:42 PM 58.7°F14.8°C 42.1°F5.6°C 54% 3.0 mph NW4.8 kmh NW 6.0 mph9.7 kmh 29.85 in1010.8 mb 0.00 in0.0 mm 0.00 in0.0 mm 0.00 in0.0 mm
03:03 PM 59.6°F15.3°C 42.4°F5.8°C 53% 4.0 mph NW6.4 kmh NW 8.0 mph12.9 kmh 29.84 in1010.5 mb 0.00 in0.0 mm 0.00 in0.0 mm 0.00 in0.0 mm
03:21 PM 59.9°F15.5°C 40.9°F4.9°C 49% 3.0 mph NW4.8 kmh NW 5.0 mph8.0 kmh 29.83 in1010.2 mb 0.00 in0.0 mm 0.00 in0.0 mm 0.00 in0.0 mm
03:42 PM 62.4°F16.9°C 40.3°F4.6°C 44% 4.0 mph NW6.4 kmh NW 8.0 mph12.9 kmh 29.79 in1008.8 mb 0.00 in0.0 mm 0.00 in0.0 mm 0.00 in0.0 mm
04:03 PM 60.5°F15.8°C 43.5°F6.4°C 53% 4.0 mph NW6.4 kmh NW 7.0 mph11.3 kmh 29.81 in1009.5 mb 0.00 in0.0 mm 0.00 in0.0 mm 0.00 in0.0 mm
04:21 PM 59.9°F15.5°C 44.5°F6.9°C 57% 3.0 mph NW4.8 kmh NW 6.0 mph9.7 kmh 29.81 in1009.5 mb 0.00 in0.0 mm 0.00 in0.0 mm 0.00 in0.0 mm
04:42 PM 59.0°F15.0°C 44.8°F7.1°C 59% 3.0 mph NW4.8 kmh NW 6.0 mph9.7 kmh 29.83 in1010.2 mb 0.00 in0.0 mm 0.00 in0.0 mm 0.00 in0.0 mm
05:03 PM 55.8°F13.2°C 45.4°F7.4°C 68% 1.0 mph NW1.6 kmh NW 3.0 mph4.8 kmh 29.86 in1011.2 mb 0.00 in0.0 mm 0.00 in0.0 mm 0.00 in0.0 mm
05:21 PM 54.1°F12.3°C 45.2°F7.3°C 72% 2.0 mph NW3.2 kmh NW 4.0 mph6.4 kmh 29.87 in1011.5 mb 0.00 in0.0 mm 0.00 in0.0 mm 0.00 in0.0 mm
05:42 PM 52.7°F11.5°C 45.1°F7.3°C 75% 1.0 mph NW1.6 kmh NW 2.0 mph3.2 kmh 29.88 in1011.9 mb 0.00 in0.0 mm 0.00 in0.0 mm 0.00 in0.0 mm
06:03 PM 51.3°F10.7°C 46.0°F7.8°C 82% 1.0 mph NW1.6 kmh NW 2.0 mph3.2 kmh 29.91 in1012.9 mb 0.00 in0.0 mm 0.00 in0.0 mm 0.00 in0.0 mm
06:21 PM 50.5°F10.3°C 45.6°F7.6°C 84% 1.0 mph NW1.6 kmh NW 2.0 mph3.2 kmh 29.92 in1013.2 mb 0.00 in0.0 mm 0.00 in0.0 mm 0.00 in0.0 mm
06:42 PM 49.1°F9.5°C 45.1°F7.3°C 86% 1.0 mph NW1.6 kmh NW 3.0 mph4.8 kmh 29.93 in1013.5 mb 0.00 in0.0 mm 0.00 in0.0 mm 0.00 in0.0 mm
07:03 PM 48.3°F9.1°C 44.9°F7.2°C 88% 1.0 mph NW1.6 kmh NW 4.0 mph6.4 kmh 29.94 in1013.9 mb 0.00 in0.0 mm 0.00 in0.0 mm 0.00 in0.0 mm
07:21 PM 47.8°F8.8°C 45.0°F7.2°C 90% 3.0 mph 4.8 kmh 6.0 mph9.7 kmh 29.96 in1014.6 mb 0.00 in0.0 mm 0.00 in0.0 mm 0.00 in0.0 mm
07:42 PM 47.3°F8.5°C 44.7°F7.1°C 91% 2.0 mph 3.2 kmh 5.0 mph8.0 kmh 29.97 in1014.9 mb 0.00 in0.0 mm 0.00 in0.0 mm 0.00 in0.0 mm
08:21 PM 46.7°F8.2°C 44.5°F6.9°C 92% 2.0 mph 3.2 kmh 4.0 mph6.4 kmh 29.99 in1015.6 mb 0.00 in0.0 mm 0.00 in0.0 mm 0.00 in0.0 mm
08:42 PM 47.1°F8.4°C 45.1°F7.3°C 93% 1.0 mph 1.6 kmh 4.0 mph6.4 kmh 29.99 in1015.6 mb 0.00 in0.0 mm 0.00 in0.0 mm 0.00 in0.0 mm
09:21 PM 47.9°F8.8°C 45.5°F7.5°C 91% 3.0 mph NNW4.8 kmh NNW 6.0 mph9.7 kmh 29.98 in1015.2 mb 0.00 in0.0 mm 0.00 in0.0 mm 0.00 in0.0 mm
09:42 PM 47.7°F8.7°C 44.9°F7.2°C 90% 3.0 mph 4.8 kmh 5.0 mph8.0 kmh 29.98 in1015.2 mb 0.00 in0.0 mm 0.00 in0.0 mm 0.00 in0.0 mm
10:03 PM 47.5°F8.6°C 44.9°F7.2°C 90% 3.0 mph 4.8 kmh 5.0 mph8.0 kmh 29.98 in1015.2 mb 0.00 in0.0 mm 0.00 in0.0 mm 0.00 in0.0 mm
10:21 PM 47.3°F8.5°C 44.6°F7.0°C 90% 4.0 mph 6.4 kmh 7.0 mph11.3 kmh 29.97 in1014.9 mb 0.00 in0.0 mm 0.00 in0.0 mm 0.00 in0.0 mm
10:42 PM 47.7°F8.7°C 44.5°F6.9°C 89% 2.0 mph 3.2 kmh 4.0 mph6.4 kmh 29.96 in1014.6 mb 0.00 in0.0 mm 0.00 in0.0 mm 0.00 in0.0 mm
11:03 PM 47.3°F8.5°C 43.3°F6.3°C 86% 2.0 mph 3.2 kmh 3.0 mph4.8 kmh 29.96 in1014.6 mb 0.00 in0.0 mm 0.00 in0.0 mm 0.00 in0.0 mm
11:24 PM 46.4°F8.0°C 43.3°F6.3°C 89% 3.0 mph 4.8 kmh 4.0 mph6.4 kmh 29.96 in1014.6 mb 0.00 in0.0 mm 0.00 in0.0 mm 0.00 in0.0 mm
11:45 PM 45.7°F7.6°C 42.9°F6.1°C 90% 1.0 mph 1.6 kmh 2.0 mph3.2 kmh 29.97 in1014.9 mb 0.00 in0.0 mm 0.00 in0.0 mm 0.00 in0.0 mm